Time;durP1;ratioP1;P1;durP2;ratioP2;P2;SDS_P1;SDS_P2;PMS_P1;PMS_P2;Temp;Humidity;BMP_temperature;BMP_pressure;BME280_temperature;BME280_humidity;BME280_pressure;Samples;Min_cycle;Max_cycle;Signal;HPM_P1;HPM_P2
2022/09/19 00:00:28;;;;;;;4.15;0.50;;;10.00;99.70;;;;;;5039446;28;20132;-55
2022/09/19 00:02:54;;;;;;;3.70;0.65;;;10.00;99.80;;;;;;5044968;28;20452;-57
2022/09/19 00:05:19;;;;;;;7.70;1.05;;;10.00;99.80;;;;;;5046400;28;20048;-56
2022/09/19 00:07:47;;;;;;;8.80;0.80;;;10.00;99.80;;;;;;5056781;28;20083;-58
2022/09/19 00:10:13;;;;;;;4.32;0.75;;;10.00;99.80;;;;;;5037782;28;20025;-57
2022/09/19 00:12:38;;;;;;;6.40;0.82;;;10.00;99.80;;;;;;5044067;28;20039;-57
2022/09/19 00:15:04;;;;;;;3.35;0.55;;;10.00;99.80;;;;;;5058937;28;20415;-58
2022/09/19 00:17:30;;;;;;;3.75;0.70;;;10.00;99.80;;;;;;5052579;28;20070;-58
2022/09/19 00:19:56;;;;;;;5.82;0.63;;;9.90;99.80;;;;;;5042178;28;20515;-58
2022/09/19 00:22:21;;;;;;;4.45;0.73;;;10.00;99.90;;;;;;5045394;28;20484;-58
2022/09/19 00:24:49;;;;;;;3.50;0.70;;;9.90;99.80;;;;;;5056290;28;20021;-56
2022/09/19 00:27:19;;;;;;;6.80;0.82;;;9.90;99.80;;;;;;5042302;28;20065;-57
2022/09/19 00:29:45;;;;;;;7.05;0.80;;;10.00;99.90;;;;;;5038305;28;20026;-57
2022/09/19 00:32:12;;;;;;;3.28;0.65;;;10.00;99.90;;;;;;5044389;28;20040;-58
2022/09/19 00:34:43;;;;;;;5.65;0.63;;;10.00;99.90;;;;;;5043994;28;20519;-57
2022/09/19 00:37:09;;;;;;;4.38;0.70;;;10.00;99.90;;;;;;5040376;28;20499;-57
2022/09/19 00:39:35;;;;;;;4.90;0.70;;;10.00;99.90;;;;;;5056797;28;20031;-57
2022/09/19 00:42:01;;;;;;;6.32;1.45;;;10.00;99.90;;;;;;5046666;28;20036;-57
2022/09/19 00:44:26;;;;;;;6.20;1.08;;;10.00;99.90;;;;;;5045039;28;20096;-57
2022/09/19 00:46:59;;;;;;;8.50;0.85;;;10.00;99.90;;;;;;5061087;28;20025;-58
2022/09/19 00:49:27;;;;;;;1.60;0.60;;;10.00;99.90;;;;;;5044337;28;20095;-58
2022/09/19 00:51:56;;;;;;;5.63;0.75;;;10.00;99.90;;;;;;5043023;28;20074;-56
2022/09/19 00:54:27;;;;;;;3.58;0.50;;;10.00;99.90;;;;;;5036486;28;20492;-58
2022/09/19 00:56:54;;;;;;;4.47;0.70;;;10.00;99.90;;;;;;5042353;28;20063;-57
2022/09/19 00:59:23;;;;;;;3.20;0.50;;;10.00;99.90;;;;;;5040305;28;20025;-57
2022/09/19 01:01:51;;;;;;;2.40;0.57;;;10.00;99.90;;;;;;5048671;28;20027;-57
2022/09/19 01:04:19;;;;;;;2.35;0.60;;;10.00;99.90;;;;;;5050920;28;20029;-57
2022/09/19 01:07:13;;;;;;;3.78;0.57;;;10.10;99.90;;;;;;5044582;28;20727;-57
2022/09/19 01:09:45;;;;;;;5.40;0.70;;;10.10;99.90;;;;;;5039518;28;20029;-57
2022/09/19 01:12:17;;;;;;;5.07;0.70;;;10.10;99.90;;;;;;5045321;28;20029;-57
2022/09/19 01:14:57;;;;;;;2.42;0.60;;;10.00;99.90;;;;;;5060123;28;20612;-57
2022/09/19 01:17:25;;;;;;;;;;;10.10;99.90;;;;;;5039450;28;20080;-57
2022/09/19 01:20:18;;;;;;;2.83;0.52;;;10.00;99.90;;;;;;5050510;28;20387;-57
2022/09/19 01:23:27;;;;;;;4.32;0.57;;;10.00;99.90;;;;;;5044383;28;20025;-57
2022/09/19 01:26:18;;;;;;;5.30;0.80;;;10.00;99.90;;;;;;5012502;28;20036;-58
2022/09/19 01:29:07;;;;;;;2.38;0.65;;;10.00;99.90;;;;;;5039431;28;20029;-57
2022/09/19 01:31:38;;;;;;;5.18;0.50;;;10.00;99.90;;;;;;5012872;28;20119;-57
2022/09/19 01:34:37;;;;;;;3.63;0.50;;;10.00;99.90;;;;;;5048176;28;20544;-57
2022/09/19 01:37:30;;;;;;;5.93;0.57;;;10.00;99.90;;;;;;5035814;28;20029;-57
2022/09/19 01:40:00;;;;;;;4.68;0.68;;;9.90;99.90;;;;;;5045699;28;20056;-58
2022/09/19 01:42:26;;;;;;;4.07;0.70;;;9.90;99.90;;;;;;5037183;28;20040;-58
2022/09/19 01:44:52;;;;;;;5.63;0.70;;;10.00;99.90;;;;;;5045718;28;20021;-57
2022/09/19 01:47:56;;;;;;;3.13;0.52;;;10.00;99.90;;;;;;5043987;28;20089;-57
2022/09/19 01:50:46;;;;;;;3.80;0.82;;;10.00;99.90;;;;;;5032757;28;20033;-57
2022/09/19 01:53:22;;;;;;;5.10;0.90;;;10.00;99.90;;;;;;5039934;28;20025;-58
2022/09/19 01:56:24;;;;;;;4.28;1.15;;;10.00;99.90;;;;;;5041089;28;20029;-57
2022/09/19 01:59:05;;;;;;;4.32;0.88;;;10.10;99.90;;;;;;5001013;28;20091;-57
2022/09/19 02:01:30;;;;;;;3.17;0.75;;;10.10;99.90;;;;;;5044944;28;20049;-57
2022/09/19 02:04:13;;;;;;;3.70;0.60;;;10.00;99.90;;;;;;5048186;28;20053;-57
2022/09/19 02:07:11;;;;;;;4.63;0.60;;;10.10;99.90;;;;;;5045367;28;20025;-57
2022/09/19 02:09:51;;;;;;;4.00;0.70;;;10.10;99.90;;;;;;5042818;28;20154;-56
2022/09/19 02:12:20;;;;;;;3.17;0.63;;;10.10;99.90;;;;;;5050895;28;20024;-57
2022/09/19 02:14:54;;;;;;;4.57;0.67;;;10.10;99.90;;;;;;5057682;28;20083;-58
2022/09/19 02:17:24;;;;;;;3.33;0.50;;;10.10;99.90;;;;;;5043277;28;20523;-58
2022/09/19 02:20:16;;;;;;;;;;;10.10;99.90;;;;;;5046893;28;20465;-57
2022/09/19 02:22:47;;;;;;;4.07;1.20;;;10.00;99.90;;;;;;5026830;28;19915;-57
2022/09/19 02:25:17;;;;;;;5.60;0.73;;;10.00;99.90;;;;;;5042696;28;20444;-58
2022/09/19 02:27:47;;;;;;;;;;;10.00;99.90;;;;;;5045039;28;20031;-57
2022/09/19 02:30:13;;;;;;;3.97;0.77;;;10.00;99.90;;;;;;5065712;28;20349;-57
2022/09/19 02:32:46;;;;;;;5.90;1.33;;;9.90;99.90;;;;;;5047392;28;20056;-57
2022/09/19 02:35:13;;;;;;;6.80;0.95;;;9.90;99.90;;;;;;5049887;28;20552;-57
2022/09/19 02:37:47;;;;;;;6.68;1.00;;;10.00;99.90;;;;;;5048748;28;20036;-58
2022/09/19 02:40:27;;;;;;;6.18;1.35;;;10.00;99.90;;;;;;5047679;28;20076;-57
2022/09/19 02:43:06;;;;;;;6.72;1.10;;;10.00;99.90;;;;;;5045336;28;20020;-57
2022/09/19 02:45:38;;;;;;;8.10;1.25;;;10.00;99.90;;;;;;5048120;28;20021;-57
2022/09/19 02:48:12;;;;;;;3.47;0.85;;;10.00;99.90;;;;;;5044354;28;20028;-57
2022/09/19 02:50:47;;;;;;;4.60;0.80;;;10.00;99.90;;;;;;5064915;28;20116;-57
2022/09/19 02:53:23;;;;;;;3.53;0.80;;;10.00;99.90;;;;;;5051012;28;20014;-57
2022/09/19 02:55:55;;;;;;;3.03;0.65;;;10.10;99.90;;;;;;5047153;28;20369;-57
2022/09/19 02:58:23;;;;;;;5.45;0.93;;;10.00;99.90;;;;;;5046709;28;20025;-57
2022/09/19 03:00:53;;;;;;;3.35;0.70;;;10.10;99.90;;;;;;5044953;28;20028;-57
2022/09/19 03:06:24;;;;;;;3.78;0.70;;;10.10;99.90;;;;;;5045533;28;20028;-57
2022/09/19 03:08:53;;;;;;;7.80;0.90;;;10.10;99.90;;;;;;5046321;28;20024;-57
2022/09/19 03:11:23;;;;;;;6.45;1.00;;;10.20;99.90;;;;;;5045290;28;20760;-57
2022/09/19 03:13:49;;;;;;;3.25;0.60;;;10.20;99.90;;;;;;5045803;28;20020;-57
2022/09/19 03:16:20;;;;;;;3.20;0.63;;;10.20;99.90;;;;;;5040426;28;20175;-57
2022/09/19 03:18:46;;;;;;;4.60;0.90;;;10.20;99.90;;;;;;5042249;28;20032;-55
2022/09/19 03:21:13;;;;;;;6.43;0.75;;;10.30;99.90;;;;;;5046978;28;20060;-58
2022/09/19 03:23:42;;;;;;;4.07;0.40;;;10.30;99.90;;;;;;5045450;28;20681;-57
2022/09/19 03:26:11;;;;;;;5.25;0.75;;;10.30;99.90;;;;;;5048467;28;20024;-57
2022/09/19 03:28:38;;;;;;;4.38;0.50;;;10.30;99.90;;;;;;5048913;28;20025;-58
2022/09/19 03:31:04;;;;;;;5.85;0.60;;;10.40;99.90;;;;;;5049416;28;20021;-57
2022/09/19 03:33:29;;;;;;;4.10;0.60;;;10.40;99.90;;;;;;5047790;28;20104;-58
2022/09/19 03:35:59;;;;;;;4.10;0.65;;;10.40;99.90;;;;;;5038240;28;20044;-54
2022/09/19 03:38:25;;;;;;;3.33;0.50;;;10.50;99.90;;;;;;5039445;28;20130;-57
2022/09/19 03:40:50;;;;;;;2.42;0.60;;;10.50;99.90;;;;;;5044022;28;20056;-57
2022/09/19 03:43:17;;;;;;;5.20;0.50;;;10.50;99.90;;;;;;5042802;28;20029;-58
2022/09/19 03:45:43;;;;;;;4.57;0.68;;;10.50;99.90;;;;;;5037522;28;20024;-57
2022/09/19 03:48:08;;;;;;;4.35;0.57;;;10.50;99.90;;;;;;5057784;28;20400;-57
2022/09/19 03:50:34;;;;;;;5.30;0.88;;;10.50;99.90;;;;;;5040470;28;20025;-57
2022/09/19 03:53:00;;;;;;;4.18;0.77;;;10.50;99.90;;;;;;5055014;28;20029;-58
2022/09/19 03:55:26;;;;;;;5.75;0.85;;;10.50;99.90;;;;;;5047538;28;20033;-58
2022/09/19 03:57:51;;;;;;;7.13;0.98;;;10.50;99.90;;;;;;5044339;28;20036;-58
2022/09/19 04:00:17;;;;;;;7.97;1.10;;;10.50;99.90;;;;;;5047060;28;20484;-58
2022/09/19 04:02:43;;;;;;;2.63;0.60;;;10.50;99.90;;;;;;5041686;28;20033;-58
2022/09/19 04:05:09;;;;;;;4.28;0.65;;;10.50;99.90;;;;;;5057157;28;20063;-58
2022/09/19 04:07:37;;;;;;;4.13;0.77;;;10.50;99.90;;;;;;5047779;28;20029;-58
2022/09/19 04:10:04;;;;;;;7.43;1.00;;;10.50;99.90;;;;;;5045253;28;20025;-56
2022/09/19 04:12:30;;;;;;;10.05;1.20;;;10.50;99.90;;;;;;5044775;28;20032;-58
2022/09/19 04:14:56;;;;;;;6.63;1.23;;;10.50;99.90;;;;;;5042354;28;20024;-56
2022/09/19 04:17:21;;;;;;;5.28;1.15;;;10.50;99.90;;;;;;5051828;28;20024;-56
2022/09/19 04:19:48;;;;;;;7.03;1.20;;;10.50;99.90;;;;;;5046613;28;20017;-58
2022/09/19 04:22:14;;;;;;;9.88;1.30;;;10.50;99.90;;;;;;5046760;28;20024;-56
2022/09/19 04:24:40;;;;;;;4.40;1.10;;;10.50;99.90;;;;;;5051226;28;20025;-57
2022/09/19 04:27:06;;;;;;;6.47;1.02;;;10.40;99.90;;;;;;5045202;28;20025;-57
2022/09/19 04:29:33;;;;;;;3.47;0.80;;;10.50;99.90;;;;;;5046560;28;20031;-58
2022/09/19 04:32:03;;;;;;;6.88;1.27;;;10.50;99.90;;;;;;5041275;28;20104;-58
2022/09/19 04:34:33;;;;;;;6.38;1.13;;;10.50;99.90;;;;;;5045954;28;20028;-58
2022/09/19 04:37:03;;;;;;;;;;;10.50;99.90;;;;;;5045422;28;20017;-58
2022/09/19 04:39:29;;;;;;;;;;;10.50;99.90;;;;;;5038073;28;19905;-56
2022/09/19 04:41:56;;;;;;;7.07;1.10;;;10.40;99.90;;;;;;5062755;28;20332;-57
2022/09/19 04:44:22;;;;;;;5.43;0.80;;;10.40;99.90;;;;;;5043534;28;20107;-58
2022/09/19 04:46:50;;;;;;;4.07;0.80;;;10.40;99.90;;;;;;5043163;28;20027;-56
2022/09/19 04:49:18;;;;;;;4.60;0.95;;;10.50;99.90;;;;;;5043875;28;20064;-56
2022/09/19 04:51:44;;;;;;;5.53;1.40;;;10.50;99.90;;;;;;5041125;28;20048;-57
2022/09/19 04:54:11;;;;;;;6.95;0.98;;;10.50;99.90;;;;;;5049643;28;20419;-57
2022/09/19 04:56:37;;;;;;;3.20;0.70;;;10.50;99.90;;;;;;5050566;28;20020;-56
2022/09/19 04:59:03;;;;;;;5.20;1.10;;;10.60;99.90;;;;;;5049592;28;20045;-57
2022/09/19 05:01:30;;;;;;;3.38;0.80;;;10.60;99.90;;;;;;5049529;28;20021;-57
2022/09/19 05:03:59;;;;;;;7.38;1.60;;;10.60;99.90;;;;;;5052049;28;20025;-57
2022/09/19 05:06:28;;;;;;;5.93;0.85;;;10.60;99.90;;;;;;5046863;28;20083;-56
2022/09/19 05:08:54;;;;;;;5.22;0.80;;;10.60;99.90;;;;;;5033798;28;20139;-56
2022/09/19 05:11:21;;;;;;;4.50;0.70;;;10.60;99.90;;;;;;5039004;28;20568;-57
2022/09/19 05:13:47;;;;;;;2.45;0.70;;;10.60;99.90;;;;;;5052087;28;20495;-56
2022/09/19 05:16:13;;;;;;;5.57;0.80;;;10.60;99.90;;;;;;5051611;28;20017;-57
2022/09/19 05:18:39;;;;;;;5.60;1.52;;;10.60;99.90;;;;;;5051791;28;20028;-57
2022/09/19 05:21:07;;;;;;;2.72;0.70;;;10.50;99.90;;;;;;5040182;28;20025;-57
2022/09/19 05:23:36;;;;;;;7.28;0.60;;;10.50;99.90;;;;;;5051726;28;20025;-58
2022/09/19 05:26:15;;;;;;;9.35;0.90;;;10.50;99.90;;;;;;5049184;28;20027;-57
2022/09/19 05:28:41;;;;;;;3.15;0.65;;;10.60;99.90;;;;;;5051425;28;20021;-57
2022/09/19 05:31:11;;;;;;;1.90;0.50;;;10.50;99.90;;;;;;5045578;28;20025;-56
2022/09/19 05:33:37;;;;;;;5.13;0.88;;;10.60;99.90;;;;;;5067018;28;21021;-58
2022/09/19 05:36:03;;;;;;;5.38;0.90;;;10.60;99.90;;;;;;5054498;28;20021;-57
2022/09/19 05:38:30;;;;;;;3.78;0.60;;;10.60;99.90;;;;;;5054687;28;20031;-58
2022/09/19 05:40:58;;;;;;;6.35;0.70;;;10.60;99.90;;;;;;5055331;28;20053;-56
2022/09/19 05:43:24;;;;;;;3.17;0.60;;;10.60;99.90;;;;;;5045901;28;20025;-58
2022/09/19 05:45:52;;;;;;;2.15;0.60;;;10.60;99.90;;;;;;5045005;28;20044;-56
2022/09/19 05:48:18;;;;;;;3.88;0.60;;;10.60;99.90;;;;;;5055794;28;20024;-57
2022/09/19 05:50:45;;;;;;;2.88;0.50;;;10.70;99.90;;;;;;5043951;28;20795;-57
2022/09/19 05:55:56;;;;;;;4.97;0.70;;;10.70;99.90;;;;;;5053198;28;20546;-56
2022/09/19 05:58:21;;;;;;;4.85;1.45;;;10.70;99.90;;;;;;5047844;28;20112;-57
2022/09/19 06:00:47;;;;;;;6.35;0.88;;;10.70;99.90;;;;;;5064587;28;20025;-57
2022/09/19 06:03:20;;;;;;;4.28;0.90;;;10.80;99.90;;;;;;5045341;28;20028;-57
2022/09/19 06:05:48;;;;;;;5.28;1.35;;;10.80;99.90;;;;;;5042177;28;20542;-58
2022/09/19 06:08:15;;;;;;;4.57;1.02;;;10.80;99.90;;;;;;5055477;28;20029;-57
2022/09/19 06:10:43;;;;;;;4.18;1.00;;;10.80;99.90;;;;;;5042563;28;20017;-55
2022/09/19 06:13:17;;;;;;;10.13;1.45;;;10.90;99.90;;;;;;5047756;28;20027;-57
2022/09/19 06:15:44;;;;;;;3.45;0.85;;;10.90;99.90;;;;;;5055406;28;20039;-57
2022/09/19 06:18:09;;;;;;;4.22;1.05;;;10.90;99.90;;;;;;5055249;28;20084;-57
2022/09/19 06:20:36;;;;;;;4.32;1.17;;;10.90;99.90;;;;;;5045872;28;20017;-57
2022/09/19 06:23:03;;;;;;;5.30;0.82;;;10.90;99.90;;;;;;5054717;28;20024;-58
2022/09/19 06:25:33;;;;;;;5.65;0.95;;;10.90;99.90;;;;;;5053658;28;20060;-57
2022/09/19 06:28:00;;;;;;;;;;;10.90;99.90;;;;;;5053597;28;20072;-57
2022/09/19 06:30:26;;;;;;;4.07;0.75;;;10.90;99.90;;;;;;5053873;28;19915;-57
2022/09/19 06:32:52;;;;;;;3.70;0.70;;;10.90;99.90;;;;;;5053818;28;20057;-57
2022/09/19 06:35:22;;;;;;;3.78;0.70;;;10.90;99.90;;;;;;5048381;28;20547;-57
2022/09/19 06:37:49;;;;;;;3.40;0.85;;;11.00;99.90;;;;;;5054116;28;20541;-57
2022/09/19 06:40:18;;;;;;;2.88;0.90;;;11.00;99.90;;;;;;5068630;28;20405;-56
2022/09/19 06:42:44;;;;;;;7.00;0.95;;;11.00;99.90;;;;;;5051162;28;20025;-57
2022/09/19 06:45:10;;;;;;;7.30;1.05;;;11.10;99.90;;;;;;5049404;28;20362;-57
2022/09/19 06:47:35;;;;;;;4.13;1.50;;;11.10;99.90;;;;;;5052803;28;20089;-57
2022/09/19 06:50:01;;;;;;;5.15;0.90;;;11.10;99.90;;;;;;5040193;28;20039;-56
2022/09/19 06:52:28;;;;;;;5.20;1.00;;;11.20;99.90;;;;;;5046808;28;20026;-58
2022/09/19 06:54:54;;;;;;;3.47;1.15;;;11.20;99.90;;;;;;5053188;28;20052;-56
2022/09/19 06:57:19;;;;;;;6.07;1.10;;;11.20;99.90;;;;;;5053541;28;20083;-58
2022/09/19 06:59:45;;;;;;;3.55;1.15;;;11.30;99.90;;;;;;5053205;28;20032;-58
2022/09/19 07:02:11;;;;;;;6.82;1.75;;;11.40;99.90;;;;;;5054807;28;20024;-57
2022/09/19 07:04:37;;;;;;;4.05;1.08;;;11.40;99.90;;;;;;5051726;28;20025;-57
2022/09/19 07:07:03;;;;;;;4.80;1.33;;;11.40;99.90;;;;;;5046469;28;20028;-58
2022/09/19 07:09:29;;;;;;;4.97;0.75;;;11.50;99.90;;;;;;5041101;28;20489;-57
2022/09/19 07:11:56;;;;;;;7.68;1.15;;;11.50;99.90;;;;;;5039975;28;20028;-58
2022/09/19 07:14:25;;;;;;;7.60;1.00;;;11.70;99.90;;;;;;5049580;28;20056;-56
2022/09/19 07:16:50;;;;;;;4.15;1.13;;;11.70;99.90;;;;;;5049168;28;20025;-57
2022/09/19 07:19:16;;;;;;;5.53;1.02;;;11.80;99.90;;;;;;5049672;28;20035;-56
2022/09/19 07:21:43;;;;;;;5.68;0.80;;;11.90;99.90;;;;;;5047112;28;20025;-58
2022/09/19 07:24:09;;;;;;;3.95;0.60;;;12.00;99.90;;;;;;5050809;28;20025;-57
2022/09/19 07:26:34;;;;;;;4.90;0.82;;;12.10;99.90;;;;;;5065367;28;20067;-58
2022/09/19 07:29:00;;;;;;;4.13;0.77;;;12.20;99.90;;;;;;5049908;28;20064;-57
2022/09/19 07:31:30;;;;;;;5.28;0.77;;;12.20;99.90;;;;;;5046057;28;20036;-57
2022/09/19 07:33:55;;;;;;;3.85;0.73;;;12.30;99.90;;;;;;5053680;28;20028;-57
2022/09/19 07:36:21;;;;;;;4.03;0.63;;;12.40;99.90;;;;;;5052410;28;20025;-58
2022/09/19 07:38:50;;;;;;;5.03;0.50;;;12.50;99.90;;;;;;5053044;28;20031;-57
2022/09/19 07:41:16;;;;;;;3.17;0.70;;;12.60;99.90;;;;;;5044329;28;20056;-58
2022/09/19 07:43:43;;;;;;;6.00;0.75;;;12.70;99.90;;;;;;5069625;28;20025;-57
2022/09/19 07:46:09;;;;;;;4.82;0.70;;;12.90;99.90;;;;;;5062366;28;20385;-58
2022/09/19 07:48:34;;;;;;;4.38;0.70;;;13.00;99.90;;;;;;5052823;28;20036;-58
2022/09/19 07:51:02;;;;;;;3.35;0.70;;;13.10;99.90;;;;;;5053288;28;20078;-56
2022/09/19 07:53:28;;;;;;;4.38;0.90;;;13.30;99.90;;;;;;5046633;28;20108;-57
2022/09/19 07:55:55;;;;;;;6.18;0.90;;;13.50;99.90;;;;;;5053571;28;20147;-57
2022/09/19 07:58:24;;;;;;;5.55;0.70;;;13.60;99.90;;;;;;5044979;28;20067;-58
2022/09/19 08:00:50;;;;;;;3.28;0.57;;;13.70;99.90;;;;;;5045900;28;20029;-57
2022/09/19 08:03:18;;;;;;;2.55;0.68;;;13.80;99.90;;;;;;5053305;28;20029;-57
2022/09/19 08:05:46;;;;;;;3.20;0.50;;;13.90;99.90;;;;;;5046746;28;20439;-57
2022/09/19 08:08:13;;;;;;;3.05;0.50;;;14.00;99.90;;;;;;5051694;28;20032;-58
2022/09/19 08:10:42;;;;;;;3.70;0.52;;;14.10;99.90;;;;;;5045221;28;20029;-57
2022/09/19 08:13:13;;;;;;;2.63;0.65;;;14.20;99.90;;;;;;5046491;28;20041;-58
2022/09/19 08:15:39;;;;;;;5.78;0.80;;;14.30;99.90;;;;;;5050614;28;20020;-58
2022/09/19 08:18:20;;;;;;;5.40;0.70;;;14.30;99.80;;;;;;5063710;28;20025;-57
2022/09/19 08:20:46;;;;;;;2.58;0.50;;;14.40;99.50;;;;;;5048080;28;20048;-57
2022/09/19 08:23:14;;;;;;;5.32;0.80;;;14.40;99.50;;;;;;5051321;28;20529;-57
2022/09/19 08:25:46;;;;;;;6.13;1.00;;;14.40;99.40;;;;;;5048274;28;20036;-58
2022/09/19 08:28:12;;;;;;;4.72;0.60;;;14.40;99.10;;;;;;5051131;28;20021;-58
2022/09/19 08:30:37;;;;;;;3.30;0.57;;;14.50;98.60;;;;;;5050381;28;20029;-57
2022/09/19 08:33:06;;;;;;;2.72;0.50;;;14.60;98.40;;;;;;5050189;28;20082;-58
2022/09/19 08:35:37;;;;;;;7.93;0.68;;;14.70;98.40;;;;;;5051656;28;20075;-57
2022/09/19 08:38:04;;;;;;;5.72;1.05;;;14.70;98.20;;;;;;5033693;28;20469;-58
2022/09/19 08:40:54;;;;;;;2.88;0.55;;;14.80;98.00;;;;;;5039876;28;20060;-59
2022/09/19 08:43:45;;;;;;;6.80;0.80;;;14.90;97.70;;;;;;5045492;28;20025;-57
2022/09/19 08:46:35;;;;;;;2.97;0.43;;;15.00;97.60;;;;;;5049298;28;20089;-57
2022/09/19 08:49:09;;;;;;;3.65;0.55;;;15.30;97.40;;;;;;5040865;28;20020;-58
2022/09/19 08:51:52;;;;;;;4.40;0.70;;;15.50;97.30;;;;;;5040337;28;20017;-58
2022/09/19 08:54:34;;;;;;;5.13;0.60;;;15.70;96.60;;;;;;5043649;28;20024;-57
2022/09/19 08:57:01;;;;;;;3.08;0.55;;;15.80;96.30;;;;;;5039283;28;20056;-57
2022/09/19 08:59:36;;;;;;;4.70;0.52;;;15.80;96.10;;;;;;5049353;28;20082;-58
2022/09/19 09:02:36;;;;;;;5.82;0.70;;;15.70;95.90;;;;;;5045068;28;20032;-58
2022/09/19 09:05:02;;;;;;;5.47;0.90;;;15.70;95.80;;;;;;5036058;28;20067;-58
2022/09/19 09:07:51;;;;;;;5.55;0.82;;;15.60;95.80;;;;;;5048553;28;20104;-58
2022/09/19 09:10:25;;;;;;;5.33;0.60;;;15.60;95.80;;;;;;5020385;28;20037;-58
2022/09/19 09:13:20;;;;;;;4.00;0.60;;;15.60;96.00;;;;;;5048113;28;20025;-58
2022/09/19 09:16:21;;;;;;;6.40;0.90;;;15.70;96.10;;;;;;5036631;28;20032;-58
2022/09/19 09:19:06;;;;;;;9.45;0.82;;;15.70;96.00;;;;;;5046907;28;20597;-58
2022/09/19 09:21:41;;;;;;;4.18;1.13;;;15.70;95.80;;;;;;5047953;28;20065;-58
2022/09/19 09:24:25;;;;;;;3.00;0.60;;;15.80;95.90;;;;;;5045290;28;20075;-59
2022/09/19 09:26:54;;;;;;;5.95;0.75;;;15.90;95.70;;;;;;5044925;28;20021;-58
2022/09/19 09:29:32;;;;;;;6.13;0.80;;;15.90;95.60;;;;;;5043161;28;20134;-57
2022/09/19 09:32:13;;;;;;;5.88;1.17;;;16.00;95.50;;;;;;5046822;28;20033;-58
2022/09/19 09:34:43;;;;;;;9.15;1.95;;;16.00;95.40;;;;;;5043013;28;20052;-58
2022/09/19 09:37:21;;;;;;;5.38;0.70;;;16.10;95.20;;;;;;5059741;28;20018;-58
2022/09/19 09:39:59;;;;;;;4.38;0.70;;;16.20;95.00;;;;;;5047486;28;20068;-58
2022/09/19 09:42:59;;;;;;;5.40;0.90;;;16.40;94.80;;;;;;5048718;28;20029;-58
2022/09/19 09:45:41;;;;;;;6.70;0.60;;;16.60;94.60;;;;;;5035333;28;20063;-58
2022/09/19 09:48:33;;;;;;;2.50;0.52;;;16.80;94.10;;;;;;5050760;28;20404;-58
2022/09/19 09:51:27;;;;;;;1.63;0.30;;;16.80;93.20;;;;;;5047381;28;20021;-57
2022/09/19 09:57:56;;;;;;;2.00;0.45;;;16.50;92.90;;;;;;5042006;28;20079;-58
2022/09/19 10:06:03;;;;;;;1.58;0.40;;;16.30;93.30;;;;;;5048778;28;20039;-58
2022/09/19 10:08:44;;;;;;;2.15;0.35;;;16.30;93.40;;;;;;5059794;28;20443;-58
2022/09/19 10:11:15;;;;;;;3.75;0.43;;;16.40;93.40;;;;;;5036548;28;20036;-58
2022/09/19 10:13:48;;;;;;;2.70;0.50;;;16.40;93.50;;;;;;5048649;28;20104;-58
2022/09/19 10:16:17;;;;;;;3.08;0.50;;;16.40;93.50;;;;;;5048914;28;20025;-57
2022/09/19 10:18:48;;;;;;;3.13;0.40;;;16.60;93.40;;;;;;5052111;28;20496;-58
2022/09/19 10:21:14;;;;;;;3.33;0.50;;;16.80;93.30;;;;;;5062020;28;20034;-58
2022/09/19 10:23:45;;;;;;;1.70;0.30;;;17.10;93.20;;;;;;5042690;28;20032;-58
2022/09/19 10:26:18;;;;;;;2.65;0.50;;;17.40;93.10;;;;;;5049276;28;20032;-58
2022/09/19 10:28:52;;;;;;;2.38;0.45;;;17.70;93.00;;;;;;5051608;28;20036;-58
2022/09/19 10:31:34;;;;;;;1.80;0.55;;;18.20;92.90;;;;;;5055435;28;20028;-59
2022/09/19 10:34:04;;;;;;;2.00;0.50;;;18.60;92.60;;;;;;5050569;28;20025;-58
2022/09/19 10:36:33;;;;;;;1.42;0.40;;;19.10;91.80;;;;;;5051912;28;20574;-58
2022/09/19 10:39:09;;;;;;;3.33;0.73;;;19.70;90.80;;;;;;5046857;28;20499;-58
2022/09/19 10:41:35;;;;;;;3.08;0.65;;;20.30;87.00;;;;;;5044753;28;20044;-58
2022/09/19 10:44:14;;;;;;;5.20;0.70;;;20.90;85.00;;;;;;5035700;28;20028;-59
2022/09/19 10:46:46;;;;;;;2.88;0.73;;;21.50;84.10;;;;;;5063213;28;20515;-58
2022/09/19 10:49:21;;;;;;;4.22;0.57;;;22.00;81.20;;;;;;5034746;28;20134;-58
2022/09/19 10:51:50;;;;;;;4.55;0.60;;;22.00;78.00;;;;;;5051457;28;20028;-58
2022/09/19 10:54:42;;;;;;;3.40;0.70;;;21.70;75.60;;;;;;5051483;28;20028;-58
2022/09/19 10:57:45;;;;;;;3.63;0.95;;;21.50;76.30;;;;;;5036344;28;20029;-58
2022/09/19 11:00:32;;;;;;;2.63;0.60;;;21.90;74.60;;;;;;5050317;28;20025;-58
2022/09/19 11:03:02;;;;;;;1.83;0.50;;;22.90;71.90;;;;;;5048800;28;20013;-58
2022/09/19 11:05:31;;;;;;;5.32;1.35;;;24.30;67.50;;;;;;5050788;28;20477;-58
2022/09/19 11:07:56;;;;;;;2.55;0.50;;;24.80;64.70;;;;;;5047883;28;20080;-59
2022/09/19 11:10:37;;;;;;;3.13;0.65;;;25.70;62.50;;;;;;5051495;28;20075;-59
2022/09/19 11:13:14;;;;;;;3.10;0.50;;;25.90;60.10;;;;;;5061717;28;20045;-59
2022/09/19 11:16:18;;;;;;;4.60;0.95;;;27.70;59.20;;;;;;5038435;28;20123;-58
2022/09/19 11:19:11;;;;;;;4.85;0.80;;;30.60;54.10;;;;;;5044209;28;20455;-59
2022/09/19 11:21:51;;;;;;;2.38;0.77;;;32.40;51.80;;;;;;5043090;28;20059;-59
2022/09/19 11:24:53;;;;;;;4.68;0.82;;;33.10;48.60;;;;;;5037441;28;20025;-59
2022/09/19 11:27:33;;;;;;;3.22;1.08;;;34.90;46.40;;;;;;5038036;28;20782;-59
2022/09/19 11:30:11;;;;;;;4.18;1.13;;;35.20;42.00;;;;;;5051090;28;20071;-58
2022/09/19 11:33:16;;;;;;;3.22;0.75;;;32.90;42.50;;;;;;5047708;28;20028;-59
2022/09/19 11:35:50;;;;;;;2.63;0.45;;;30.30;46.00;;;;;;5047209;28;20048;-59
2022/09/19 11:38:40;;;;;;;1.65;0.40;;;28.30;49.20;;;;;;5034534;28;20441;-59
2022/09/19 11:41:15;;;;;;;1.98;0.50;;;27.10;51.20;;;;;;5048320;28;20447;-59
2022/09/19 11:43:45;;;;;;;2.13;0.40;;;26.10;53.00;;;;;;5050857;28;20017;-58
2022/09/19 11:46:43;;;;;;;1.00;0.30;;;25.40;54.20;;;;;;5050361;28;20029;-59
2022/09/19 11:49:46;;;;;;;1.17;0.32;;;25.10;55.00;;;;;;5045116;28;20546;-59
2022/09/19 11:52:26;;;;;;;1.38;0.43;;;25.90;55.00;;;;;;5048012;28;20029;-58
2022/09/19 11:55:11;;;;;;;1.30;0.30;;;26.50;52.90;;;;;;5050045;28;20016;-58
2022/09/19 11:57:44;;;;;;;0.85;0.40;;;26.60;51.80;;;;;;5031669;28;20063;-58
2022/09/19 12:00:18;;;;;;;1.65;0.60;;;26.40;52.20;;;;;;5049125;28;20098;-58
2022/09/19 12:02:53;;;;;;;1.65;0.40;;;25.90;52.70;;;;;;5048040;28;20025;-58
2022/09/19 12:05:31;;;;;;;1.42;0.40;;;25.40;53.70;;;;;;5043322;28;20048;-59
2022/09/19 12:08:15;;;;;;;1.83;0.63;;;24.90;54.50;;;;;;5044949;28;20115;-58
2022/09/19 12:10:54;;;;;;;1.02;0.45;;;24.70;55.70;;;;;;5048572;28;20131;-58
2022/09/19 12:13:42;;;;;;;;;;;24.60;56.00;;;;;;5043540;28;20036;-59
2022/09/19 12:16:16;;;;;;;3.80;1.00;;;24.30;56.30;;;;;;5043525;28;19904;-58
2022/09/19 12:18:55;;;;;;;2.58;0.45;;;24.60;56.20;;;;;;5046235;28;20575;-58
2022/09/19 12:21:22;;;;;;;1.98;0.40;;;24.40;55.60;;;;;;5045304;28;20131;-59
2022/09/19 12:27:21;;;;;;;3.20;0.55;;;23.70;56.80;;;;;;5032153;28;20112;-58
2022/09/19 12:29:57;;;;;;;0.90;0.35;;;23.40;57.70;;;;;;4990732;28;20030;-58
2022/09/19 12:32:51;;;;;;;2.70;0.50;;;24.00;58.10;;;;;;5043666;28;20115;-58
2022/09/19 12:35:43;;;;;;;1.58;0.50;;;25.20;56.30;;;;;;5031403;28;20033;-58
2022/09/19 12:38:24;;;;;;;1.90;0.50;;;27.50;53.70;;;;;;5031333;28;20032;-59
2022/09/19 12:41:06;;;;;;;2.83;0.60;;;29.90;50.30;;;;;;5044377;28;20037;-59
2022/09/19 12:44:10;;;;;;;2.38;0.43;;;30.60;46.60;;;;;;5043161;28;20064;-58
2022/09/19 12:46:50;;;;;;;1.55;0.50;;;29.50;47.20;;;;;;5045423;28;20021;-58
2022/09/19 12:49:50;;;;;;;2.05;0.40;;;28.10;48.80;;;;;;5042988;28;20021;-59
2022/09/19 12:52:38;;;;;;;2.25;0.50;;;26.90;50.30;;;;;;5052937;28;20436;-58
2022/09/19 12:55:15;;;;;;;4.63;0.80;;;25.80;52.20;;;;;;5042594;28;20499;-58
2022/09/19 12:58:04;;;;;;;1.27;0.30;;;24.90;53.70;;;;;;5046079;28;20033;-58
2022/09/19 13:00:33;;;;;;;3.22;0.93;;;24.10;54.90;;;;;;5049458;28;20516;-58
2022/09/19 13:03:04;;;;;;;2.03;0.50;;;23.50;56.30;;;;;;5048591;28;20017;-58
2022/09/19 13:05:39;;;;;;;2.22;0.50;;;23.10;57.40;;;;;;5046407;28;20098;-58
2022/09/19 13:08:12;;;;;;;2.35;0.45;;;22.70;58.40;;;;;;5046420;28;20028;-58
2022/09/19 13:10:44;;;;;;;2.17;0.40;;;22.30;58.90;;;;;;5048018;28;20460;-58
2022/09/19 13:13:23;;;;;;;0.90;0.40;;;22.00;59.60;;;;;;5045743;28;20032;-59
2022/09/19 13:15:57;;;;;;;2.58;0.40;;;21.90;60.10;;;;;;5039440;28;20527;-58
2022/09/19 13:24:04;;;;;;;1.13;0.52;;;23.00;58.70;;;;;;5038726;28;20032;-58
2022/09/19 13:26:35;;;;;;;1.55;0.40;;;22.90;58.80;;;;;;5049527;28;20025;-58
2022/09/19 13:29:08;;;;;;;1.45;0.50;;;22.70;59.10;;;;;;5045609;28;20029;-58
2022/09/19 13:31:57;;;;;;;1.48;0.50;;;22.60;59.40;;;;;;5044247;28;20025;-58
2022/09/19 13:34:40;;;;;;;1.55;0.32;;;22.40;59.40;;;;;;5039926;28;20013;-58
2022/09/19 13:37:29;;;;;;;2.38;0.45;;;22.30;59.80;;;;;;5060102;28;20025;-58
2022/09/19 13:40:32;;;;;;;2.35;0.43;;;22.10;60.40;;;;;;5040786;28;20068;-58
2022/09/19 13:43:11;;;;;;;1.90;0.40;;;21.90;60.90;;;;;;5041296;28;20163;-58